Time;durP1;ratioP1;P1;durP2;ratioP2;P2;SDS_P1;SDS_P2;PMS_P1;PMS_P2;Temp;Humidity;BMP_temperature;BMP_pressure;BME280_temperature;BME280_humidity;BME280_pressure;Samples;Min_cycle;Max_cycle;Signal;HPM_P1;HPM_P2
2022/12/19 08:09:13;;;;;;;22.73;6.90;;;11.30;99.90;;;;;;5042263;28;20388;-45
2022/12/19 08:11:39;;;;;;;25.73;8.35;;;11.20;99.90;;;;;;5045266;28;20033;-50
2022/12/19 08:14:05;;;;;;;33.35;7.18;;;11.20;99.90;;;;;;5042417;28;20385;-48
2022/12/19 08:16:30;;;;;;;27.88;7.00;;;11.20;99.90;;;;;;5037861;28;20109;-49
2022/12/19 08:18:56;;;;;;;25.27;7.28;;;11.20;99.90;;;;;;5046943;28;20029;-49
2022/12/19 08:21:23;;;;;;;26.40;7.15;;;11.20;99.90;;;;;;5045992;28;20029;-48
2022/12/19 08:23:49;;;;;;;23.60;7.30;;;11.20;99.90;;;;;;5044970;28;20025;-49
2022/12/19 08:26:23;;;;;;;26.23;6.32;;;11.20;99.90;;;;;;5042197;28;20399;-49
2022/12/19 08:28:53;;;;;;;24.55;8.30;;;11.30;99.90;;;;;;5046321;28;20033;-45
2022/12/19 08:31:19;;;;;;;28.23;6.45;;;11.30;99.90;;;;;;5040218;28;20044;-52
2022/12/19 08:33:46;;;;;;;26.65;6.40;;;11.40;99.90;;;;;;5035077;28;20032;-46
2022/12/19 08:36:14;;;;;;;27.45;6.22;;;11.40;99.90;;;;;;5034827;28;20025;-50
2022/12/19 08:38:40;;;;;;;26.92;6.22;;;11.30;99.90;;;;;;5044569;28;20024;-48
2022/12/19 08:41:06;;;;;;;24.17;6.40;;;11.30;99.90;;;;;;5042358;28;20037;-49
2022/12/19 08:43:32;;;;;;;33.65;5.85;;;11.30;99.90;;;;;;5044126;28;20108;-48
2022/12/19 08:45:58;;;;;;;23.02;5.25;;;11.40;99.90;;;;;;5030872;28;20029;-49
2022/12/19 08:48:24;;;;;;;33.42;6.65;;;11.40;99.90;;;;;;5038305;28;21321;-50
2022/12/19 08:50:55;;;;;;;21.75;5.50;;;11.40;99.90;;;;;;5043463;28;20044;-51
2022/12/19 08:53:23;;;;;;;23.33;5.28;;;11.50;99.90;;;;;;5045195;28;20056;-51
2022/12/19 08:55:57;;;;;;;17.63;4.45;;;11.50;99.90;;;;;;5045567;28;20053;-51
2022/12/19 08:58:24;;;;;;;15.77;5.20;;;11.50;99.90;;;;;;5046588;28;20056;-49
2022/12/19 09:00:52;;;;;;;23.45;5.75;;;11.50;99.90;;;;;;5041355;28;20021;-51
2022/12/19 09:03:21;;;;;;;18.08;4.50;;;11.60;99.90;;;;;;5044466;28;20028;-55
2022/12/19 09:05:57;;;;;;;18.23;5.22;;;11.60;99.90;;;;;;5034871;28;20026;-49
2022/12/19 09:08:24;;;;;;;20.95;4.53;;;11.60;99.90;;;;;;5037245;28;20124;-48
2022/12/19 09:10:56;;;;;;;22.35;5.00;;;11.60;99.90;;;;;;5038166;28;20498;-49
2022/12/19 09:13:22;;;;;;;17.02;4.55;;;11.60;99.90;;;;;;5042040;28;20112;-50
2022/12/19 09:15:47;;;;;;;30.63;5.32;;;11.50;99.90;;;;;;5043265;28;20160;-47
2022/12/19 09:18:13;;;;;;;25.75;5.47;;;11.50;99.90;;;;;;5039764;28;20037;-54
2022/12/19 09:20:39;;;;;;;22.90;4.40;;;11.50;99.90;;;;;;5019589;28;20026;-53
2022/12/19 09:23:04;;;;;;;24.85;5.68;;;11.50;99.90;;;;;;5015543;28;20040;-49
2022/12/19 09:25:30;;;;;;;18.30;4.80;;;11.50;99.90;;;;;;5029263;28;20107;-47
2022/12/19 09:27:55;;;;;;;18.42;4.55;;;11.50;99.90;;;;;;5031552;28;20034;-48
2022/12/19 09:30:21;;;;;;;21.08;4.65;;;11.50;99.90;;;;;;5032178;28;20036;-46
2022/12/19 09:32:47;;;;;;;25.00;4.55;;;11.50;99.90;;;;;;5032941;28;20029;-52
2022/12/19 09:35:12;;;;;;;16.20;4.57;;;11.50;99.90;;;;;;5033017;28;20032;-48
2022/12/19 09:37:38;;;;;;;19.75;4.15;;;11.50;99.90;;;;;;5024347;28;20434;-52
2022/12/19 09:40:05;;;;;;;21.67;4.65;;;11.50;99.90;;;;;;5030564;28;20052;-51
2022/12/19 09:42:43;;;;;;;18.75;4.50;;;11.50;99.90;;;;;;5024576;28;20091;-51
2022/12/19 09:45:24;;;;;;;23.80;5.03;;;11.50;99.90;;;;;;5028316;28;20018;-53
2022/12/19 09:47:54;;;;;;;15.73;4.90;;;11.50;99.90;;;;;;5027659;28;20084;-54
2022/12/19 09:50:41;;;;;;;20.73;4.45;;;11.40;99.90;;;;;;5029836;28;20100;-58
2022/12/19 09:53:15;;;;;;;20.00;4.00;;;11.40;99.90;;;;;;5028506;28;20455;-49
2022/12/19 09:55:41;;;;;;;23.75;5.43;;;11.40;99.90;;;;;;5033219;28;20029;-50
2022/12/19 09:58:25;;;;;;;21.08;4.25;;;11.40;99.90;;;;;;5032850;28;20044;-49
2022/12/19 10:00:56;;;;;;;23.17;4.85;;;11.40;99.90;;;;;;5022635;28;20469;-52
2022/12/19 10:03:35;;;;;;;22.95;5.03;;;11.30;99.90;;;;;;5042091;28;20033;-51
2022/12/19 10:06:16;;;;;;;;;;;11.30;99.90;;;;;;5038617;28;20040;-53
2022/12/19 10:08:45;;;;;;;22.70;5.85;;;11.30;99.90;;;;;;5026527;28;19929;-49
2022/12/19 10:11:13;;;;;;;27.80;4.97;;;11.30;99.90;;;;;;5032518;28;20037;-51
2022/12/19 10:13:51;;;;;;;26.92;5.25;;;11.30;99.90;;;;;;5022423;28;20464;-51
2022/12/19 10:16:41;;;;;;;22.75;5.10;;;11.30;99.90;;;;;;5041559;28;20063;-48
2022/12/19 10:19:31;;;;;;;20.80;4.72;;;11.30;99.90;;;;;;5019958;28;20033;-48
2022/12/19 10:22:06;;;;;;;24.75;4.43;;;11.30;99.90;;;;;;5028718;28;20038;-48
2022/12/19 10:24:40;;;;;;;21.67;5.32;;;11.20;99.90;;;;;;5030846;28;20041;-47
2022/12/19 10:27:25;;;;;;;23.10;4.88;;;11.20;99.90;;;;;;5031324;28;20030;-52
2022/12/19 10:30:11;;;;;;;25.67;4.80;;;11.20;99.90;;;;;;5031665;28;20034;-49
2022/12/19 10:33:09;;;;;;;24.48;5.35;;;11.20;99.90;;;;;;5025360;28;20408;-51
2022/12/19 10:35:42;;;;;;;22.13;5.47;;;11.20;99.90;;;;;;5014267;28;20063;-55
2022/12/19 10:38:10;;;;;;;27.70;5.10;;;11.20;99.90;;;;;;5030283;28;20476;-54
2022/12/19 10:40:46;;;;;;;22.00;5.80;;;11.20;99.90;;;;;;5030078;28;20029;-54
2022/12/19 10:43:41;;;;;;;18.70;4.78;;;11.10;99.90;;;;;;5017398;28;20025;-49
2022/12/19 10:46:37;;;;;;;17.13;4.53;;;11.20;99.90;;;;;;5030725;28;20033;-53
2022/12/19 10:49:20;;;;;;;19.45;5.18;;;11.20;99.90;;;;;;5032318;28;20042;-52
2022/12/19 10:51:59;;;;;;;22.98;5.20;;;11.20;99.90;;;;;;5034466;28;20032;-50
2022/12/19 10:54:47;;;;;;;29.15;5.70;;;11.20;99.90;;;;;;5026073;28;20479;-46
2022/12/19 10:57:26;;;;;;;23.90;5.13;;;11.20;99.90;;;;;;5030000;28;20029;-52
2022/12/19 11:00:13;;;;;;;14.85;4.63;;;11.20;99.90;;;;;;5031777;28;20030;-48
2022/12/19 11:02:42;;;;;;;23.98;4.57;;;11.20;99.90;;;;;;5030941;28;20031;-48
2022/12/19 11:05:20;;;;;;;;;;;11.20;99.90;;;;;;5034193;28;20017;-50
2022/12/19 11:08:22;;;;;;;21.17;4.88;;;11.20;99.90;;;;;;5029623;28;19932;-53
2022/12/19 11:10:51;;;;;;;27.52;5.10;;;11.20;99.90;;;;;;5027793;28;20108;-52
2022/12/19 11:13:34;;;;;;;21.67;4.90;;;11.20;99.90;;;;;;5027310;28;20038;-51
2022/12/19 11:16:01;;;;;;;19.98;5.05;;;11.20;99.90;;;;;;5028775;28;20271;-48
2022/12/19 11:18:37;;;;;;;18.08;4.75;;;11.30;99.90;;;;;;5031806;28;20025;-53
2022/12/19 11:21:27;;;;;;;25.20;5.22;;;11.30;99.90;;;;;;5034401;28;20078;-52
2022/12/19 11:24:00;;;;;;;21.88;4.78;;;11.30;99.90;;;;;;5027571;28;20052;-51
2022/12/19 11:26:44;;;;;;;18.55;5.65;;;11.20;99.90;;;;;;5032175;28;20069;-51
2022/12/19 11:29:36;;;;;;;24.90;4.95;;;11.30;99.90;;;;;;5025088;28;20123;-51
2022/12/19 11:32:02;;;;;;;22.25;5.43;;;11.30;99.90;;;;;;5041562;28;20502;-48
2022/12/19 11:34:31;;;;;;;23.90;5.18;;;11.40;99.90;;;;;;5037290;28;20029;-47
2022/12/19 11:37:15;;;;;;;19.40;5.15;;;11.40;99.90;;;;;;5028758;28;20033;-46
2022/12/19 11:39:46;;;;;;;22.48;5.65;;;11.40;99.90;;;;;;5040515;28;20025;-46
2022/12/19 11:42:34;;;;;;;28.20;5.82;;;11.40;99.90;;;;;;5042095;28;20032;-48
2022/12/19 11:45:10;;;;;;;20.17;5.53;;;11.40;99.90;;;;;;5030725;28;20480;-47
2022/12/19 11:47:39;;;;;;;18.88;5.38;;;11.30;99.90;;;;;;5029834;28;20037;-48
2022/12/19 11:50:20;;;;;;;19.33;5.35;;;11.30;99.90;;;;;;5028863;28;20040;-47
2022/12/19 11:52:57;;;;;;;17.75;5.47;;;11.30;99.90;;;;;;5028050;28;20044;-48
2022/12/19 11:55:38;;;;;;;20.38;5.22;;;11.30;99.90;;;;;;5027703;28;20076;-48
2022/12/19 11:58:03;;;;;;;22.60;5.40;;;11.30;99.90;;;;;;5028135;28;20052;-49
2022/12/19 12:00:30;;;;;;;23.80;5.18;;;11.30;99.90;;;;;;5030536;28;20022;-50
2022/12/19 12:03:17;;;;;;;22.40;5.43;;;11.40;99.90;;;;;;5030456;28;20025;-47
2022/12/19 12:05:46;;;;;;;14.45;4.40;;;11.40;99.90;;;;;;5035225;28;20025;-49
2022/12/19 12:08:30;;;;;;;21.90;5.03;;;11.40;99.90;;;;;;5030475;28;20544;-49
2022/12/19 12:11:00;;;;;;;17.38;4.60;;;11.40;99.90;;;;;;5027745;28;20027;-48
2022/12/19 12:13:33;;;;;;;;;;;11.50;99.90;;;;;;5027428;28;20105;-46
2022/12/19 12:16:04;;;;;;;17.30;5.25;;;11.50;99.90;;;;;;5021968;28;20423;-49
2022/12/19 12:18:47;;;;;;;15.43;4.63;;;11.40;99.90;;;;;;5017162;28;20217;-48
2022/12/19 12:21:23;;;;;;;17.30;4.38;;;11.50;99.90;;;;;;5026180;28;20104;-48
2022/12/19 12:24:16;;;;;;;18.77;4.80;;;11.50;99.90;;;;;;5019634;28;20461;-47
2022/12/19 12:26:42;;;;;;;13.27;3.97;;;11.60;99.90;;;;;;5024938;28;20101;-48
2022/12/19 12:29:30;;;;;;;23.23;4.55;;;11.60;99.90;;;;;;5011794;28;20125;-46
2022/12/19 12:31:55;;;;;;;14.35;3.83;;;11.60;99.90;;;;;;5025243;28;20480;-50
2022/12/19 12:34:24;;;;;;;18.80;4.30;;;11.60;99.90;;;;;;5021397;28;20095;-42
2022/12/19 12:37:05;;;;;;;19.83;5.00;;;11.60;99.90;;;;;;5023566;28;20041;-48
2022/12/19 12:39:42;;;;;;;20.00;4.95;;;11.60;99.90;;;;;;5026512;28;20029;-51
2022/12/19 12:42:35;;;;;;;17.50;4.15;;;11.60;99.90;;;;;;5025931;28;20384;-50
2022/12/19 12:45:07;;;;;;;14.85;4.40;;;11.60;99.90;;;;;;5028017;28;20047;-48
2022/12/19 12:47:35;;;;;;;19.40;4.70;;;11.70;99.90;;;;;;5024022;28;20060;-49
2022/12/19 12:50:06;;;;;;;16.10;4.60;;;11.70;99.90;;;;;;5035844;28;20127;-55
2022/12/19 12:52:36;;;;;;;17.73;4.45;;;11.70;99.90;;;;;;5033409;28;20036;-51
2022/12/19 12:55:11;;;;;;;17.35;4.30;;;11.70;99.90;;;;;;5034445;28;20021;-55
2022/12/19 12:57:37;;;;;;;17.92;4.53;;;11.70;99.90;;;;;;5028797;28;20065;-59
2022/12/19 13:00:30;;;;;;;20.40;4.72;;;11.70;99.90;;;;;;5031820;28;20088;-54
2022/12/19 13:03:16;;;;;;;17.95;4.03;;;11.80;99.90;;;;;;5028270;28;20103;-53
2022/12/19 13:05:45;;;;;;;18.30;4.70;;;11.80;99.90;;;;;;5030081;28;20142;-56
2022/12/19 13:08:43;;;;;;;18.65;4.70;;;11.90;99.90;;;;;;5026052;28;20046;-54
2022/12/19 13:14:42;;;;;;;20.13;4.30;;;11.90;99.90;;;;;;5030111;28;20080;-53
2022/12/19 13:17:37;;;;;;;19.35;3.88;;;12.10;99.90;;;;;;5027962;28;20030;-55
2022/12/19 13:20:02;;;;;;;18.92;3.20;;;12.20;99.90;;;;;;5029078;28;20125;-56
2022/12/19 13:22:28;;;;;;;16.98;3.45;;;12.50;99.90;;;;;;5030695;28;20101;-54
2022/12/19 13:24:56;;;;;;;13.48;3.30;;;12.60;99.90;;;;;;5028415;28;20022;-55
2022/12/19 13:27:22;;;;;;;12.95;3.28;;;12.70;99.90;;;;;;5029988;28;20037;-53
2022/12/19 13:30:03;;;;;;;10.52;3.35;;;12.80;99.90;;;;;;5029301;28;20135;-51
2022/12/19 13:32:37;;;;;;;17.23;3.22;;;12.90;99.90;;;;;;5029656;28;20025;-55
2022/12/19 13:35:25;;;;;;;13.35;3.88;;;12.90;99.90;;;;;;5029945;28;20024;-51
2022/12/19 13:38:01;;;;;;;28.35;3.63;;;12.80;99.90;;;;;;5030341;28;20025;-50
2022/12/19 13:40:42;;;;;;;13.43;3.38;;;12.70;99.90;;;;;;5023722;28;20484;-50
2022/12/19 13:46:02;;;;;;;15.33;3.77;;;12.60;99.90;;;;;;5028604;28;20033;-54
2022/12/19 13:48:52;;;;;;;9.70;2.95;;;12.60;99.90;;;;;;5028646;28;20065;-53
2022/12/19 13:51:18;;;;;;;10.38;3.28;;;12.70;99.90;;;;;;5027365;28;20488;-50
2022/12/19 13:53:43;;;;;;;15.77;3.28;;;12.60;99.90;;;;;;5029563;28;20083;-52
2022/12/19 13:56:18;;;;;;;15.00;3.72;;;12.50;99.90;;;;;;5030536;28;20025;-50
2022/12/19 13:58:43;;;;;;;17.02;3.45;;;12.50;99.90;;;;;;5025605;28;20100;-52
2022/12/19 14:01:26;;;;;;;15.43;3.10;;;12.40;99.90;;;;;;5026953;28;20555;-52
2022/12/19 14:03:54;;;;;;;14.50;3.17;;;12.30;99.90;;;;;;5028689;28;20116;-51
2022/12/19 14:06:28;;;;;;;19.30;3.75;;;12.20;99.90;;;;;;5026840;28;20033;-48
2022/12/19 14:09:07;;;;;;;13.43;3.03;;;12.20;99.90;;;;;;5028249;28;20107;-55
2022/12/19 14:11:41;;;;;;;15.63;3.40;;;12.20;99.90;;;;;;5027506;28;20026;-52
2022/12/19 14:17:12;;;;;;;17.38;3.38;;;12.10;99.90;;;;;;5027743;28;20036;-48
2022/12/19 14:19:39;;;;;;;;;;;12.20;99.90;;;;;;5027925;28;20029;-46
2022/12/19 14:22:16;;;;;;;12.93;3.30;;;12.20;99.90;;;;;;5029348;28;19915;-48
2022/12/19 14:25:03;;;;;;;12.95;3.25;;;12.20;99.90;;;;;;5027011;28;20025;-51
2022/12/19 14:27:36;;;;;;;14.25;3.50;;;12.10;99.90;;;;;;5029679;28;20053;-47
2022/12/19 14:30:07;;;;;;;15.35;4.13;;;12.10;99.90;;;;;;5030089;28;20022;-54
2022/12/19 14:32:35;;;;;;;11.27;3.05;;;12.10;99.90;;;;;;5031223;28;20087;-55
2022/12/19 14:35:07;;;;;;;20.05;4.00;;;12.10;99.90;;;;;;5030830;28;20025;-54
2022/12/19 14:37:39;;;;;;;14.55;3.42;;;12.20;99.90;;;;;;5033787;28;20050;-49
2022/12/19 14:40:18;;;;;;;14.32;4.00;;;12.30;99.90;;;;;;5032203;28;20109;-49
2022/12/19 14:45:39;;;;;;;14.07;3.65;;;12.30;99.90;;;;;;5025642;28;20068;-50
2022/12/19 14:48:31;;;;;;;12.50;3.50;;;12.30;99.90;;;;;;5021991;28;20069;-51
2022/12/19 14:51:06;;;;;;;14.48;4.18;;;12.30;99.90;;;;;;5027526;28;20037;-38
2022/12/19 14:53:32;;;;;;;8.65;3.05;;;12.30;99.90;;;;;;5030744;28;20113;-46
2022/12/19 14:56:08;;;;;;;19.35;3.95;;;12.30;99.90;;;;;;5030480;28;20113;-48
2022/12/19 14:58:36;;;;;;;16.40;3.67;;;12.20;99.90;;;;;;5019187;28;20036;-49
2022/12/19 15:01:04;;;;;;;10.57;2.83;;;12.20;99.90;;;;;;5013557;28;20081;-50
2022/12/19 15:03:38;;;;;;;13.07;3.55;;;12.10;99.90;;;;;;5013722;28;20068;-47
2022/12/19 15:06:14;;;;;;;14.82;3.20;;;12.20;99.90;;;;;;5012840;28;20113;-49
2022/12/19 15:08:40;;;;;;;16.08;3.80;;;12.20;99.90;;;;;;5012858;28;20657;-49
2022/12/19 15:13:53;;;;;;;10.38;3.20;;;12.20;99.90;;;;;;5029699;28;20033;-48
2022/12/19 15:16:25;;;;;;;12.95;3.50;;;12.20;99.90;;;;;;5017597;28;20037;-49
2022/12/19 15:18:55;;;;;;;16.30;3.35;;;12.20;99.90;;;;;;5029780;28;20018;-54
2022/12/19 15:21:20;;;;;;;;;;;12.30;99.90;;;;;;5026091;28;20548;-48
2022/12/19 15:23:46;;;;;;;11.50;3.05;;;12.30;99.90;;;;;;5028561;28;19909;-48
2022/12/19 15:26:18;;;;;;;9.48;3.08;;;12.40;99.90;;;;;;5028520;28;20071;-54
2022/12/19 15:28:47;;;;;;;11.88;3.25;;;12.40;99.90;;;;;;5027594;28;20132;-47
2022/12/19 15:31:26;;;;;;;16.38;3.13;;;12.40;99.90;;;;;;5027773;28;20100;-52
2022/12/19 15:33:51;;;;;;;13.70;3.15;;;12.40;99.90;;;;;;5026425;28;20028;-46
2022/12/19 15:36:17;;;;;;;16.42;3.22;;;12.40;99.90;;;;;;5022696;28;20030;-45
2022/12/19 15:38:42;;;;;;;13.43;3.53;;;12.40;99.90;;;;;;5025145;28;20398;-47
2022/12/19 15:41:14;;;;;;;17.92;3.50;;;12.50;99.90;;;;;;5028385;28;20112;-49
2022/12/19 15:43:40;;;;;;;11.55;3.45;;;12.50;99.90;;;;;;5028103;28;20028;-49
2022/12/19 15:46:09;;;;;;;14.15;3.10;;;12.50;99.90;;;;;;5026591;28;20021;-49
2022/12/19 15:48:39;;;;;;;19.50;3.22;;;12.50;99.90;;;;;;5027853;28;20029;-48
2022/12/19 15:51:04;;;;;;;15.30;3.28;;;12.50;99.90;;;;;;5021078;28;20030;-45
2022/12/19 15:53:31;;;;;;;11.65;3.38;;;12.50;99.90;;;;;;5019910;28;20503;-45
2022/12/19 15:55:58;;;;;;;17.17;3.40;;;12.50;99.90;;;;;;5015206;28;20860;-45
2022/12/19 15:58:28;;;;;;;12.70;3.35;;;12.50;99.90;;;;;;5014367;28;20374;-51
2022/12/19 16:01:01;;;;;;;17.85;3.45;;;12.60;99.90;;;;;;5016445;28;20022;-48
2022/12/19 16:03:27;;;;;;;10.05;3.63;;;12.60;99.90;;;;;;5014000;28;20540;-46
2022/12/19 16:05:53;;;;;;;11.52;3.05;;;12.60;99.90;;;;;;5016758;28;20570;-50
2022/12/19 16:08:21;;;;;;;14.63;3.20;;;12.60;99.90;;;;;;5013827;28;20519;-55
2022/12/19 16:10:53;;;;;;;17.05;3.80;;;12.60;99.90;;;;;;5020615;28;20039;-52
2022/12/19 16:13:28;;;;;;;14.73;3.08;;;12.60;99.90;;;;;;5025119;28;20033;-49
2022/12/19 16:15:54;;;;;;;13.52;4.00;;;12.60;99.90;;;;;;5030769;28;20025;-50
2022/12/19 16:18:20;;;;;;;14.68;3.08;;;12.60;99.90;;;;;;5023372;28;20026;-56
2022/12/19 16:20:46;;;;;;;17.80;3.50;;;12.60;99.90;;;;;;5031371;28;20022;-48
2022/12/19 16:23:13;;;;;;;14.50;3.70;;;12.60;99.90;;;;;;5031140;28;20041;-46
2022/12/19 16:25:41;;;;;;;11.75;3.10;;;12.60;99.90;;;;;;5032373;28;20391;-49
2022/12/19 16:28:27;;;;;;;19.13;4.13;;;12.60;99.90;;;;;;5033322;28;20045;-50
2022/12/19 16:30:55;;;;;;;19.15;4.30;;;12.60;99.90;;;;;;5033604;28;20029;-53
2022/12/19 16:33:24;;;;;;;14.40;3.42;;;12.60;99.90;;;;;;5031180;28;20108;-50
2022/12/19 16:35:50;;;;;;;18.43;3.90;;;12.50;99.90;;;;;;5028163;28;20144;-50
2022/12/19 16:38:17;;;;;;;14.68;3.72;;;12.40;99.90;;;;;;5032099;28;20270;-47
2022/12/19 16:40:44;;;;;;;16.60;4.03;;;12.30;99.90;;;;;;5021810;28;20137;-49
2022/12/19 16:43:36;;;;;;;18.52;4.07;;;12.20;99.90;;;;;;5030224;28;20044;-52
2022/12/19 16:46:04;;;;;;;19.67;4.32;;;12.20;99.90;;;;;;5038279;28;20021;-51
2022/12/19 16:48:30;;;;;;;12.05;3.55;;;12.20;99.90;;;;;;5035189;28;20037;-48
2022/12/19 16:50:57;;;;;;;18.67;4.22;;;12.20;99.90;;;;;;5024928;28;20022;-46
2022/12/19 16:53:23;;;;;;;19.17;4.72;;;12.20;99.90;;;;;;5033489;28;20045;-49
2022/12/19 16:55:49;;;;;;;17.25;4.65;;;12.20;99.90;;;;;;5026520;28;20114;-49
2022/12/19 16:58:24;;;;;;;22.20;5.07;;;12.30;99.90;;;;;;5035345;28;20025;-45
2022/12/19 17:00:53;;;;;;;17.27;4.18;;;12.30;99.90;;;;;;5030213;28;20057;-39
2022/12/19 17:03:40;;;;;;;14.55;4.03;;;12.30;99.90;;;;;;5033632;28;20041;-45
2022/12/19 17:06:09;;;;;;;13.25;3.75;;;12.40;99.90;;;;;;5031519;28;20034;-50
2022/12/19 17:08:35;;;;;;;18.38;3.97;;;12.40;99.90;;;;;;5030719;28;20052;-49
2022/12/19 17:11:01;;;;;;;13.05;3.80;;;12.30;99.90;;;;;;5028412;28;20022;-47
2022/12/19 17:13:27;;;;;;;19.05;4.55;;;12.30;99.90;;;;;;5032484;28;20026;-50
2022/12/19 17:15:52;;;;;;;16.38;4.53;;;12.20;99.90;;;;;;5031491;28;20025;-53
2022/12/19 17:18:31;;;;;;;19.58;4.47;;;12.30;99.90;;;;;;5032370;28;20036;-52
2022/12/19 17:20:57;;;;;;;15.10;4.45;;;12.30;99.90;;;;;;5033528;28;20044;-45
2022/12/19 17:23:24;;;;;;;18.52;4.53;;;12.30;99.90;;;;;;5034197;28;20392;-48
2022/12/19 17:25:53;;;;;;;15.52;4.72;;;12.30;99.90;;;;;;5033403;28;20028;-47
2022/12/19 17:28:18;;;;;;;18.87;4.67;;;12.30;99.90;;;;;;5030493;28;20041;-51
2022/12/19 17:30:49;;;;;;;24.30;5.07;;;12.30;99.90;;;;;;5030126;28;20108;-46
2022/12/19 17:33:17;;;;;;;17.98;4.55;;;12.30;99.90;;;;;;5036922;28;20037;-55
2022/12/19 17:35:43;;;;;;;14.32;4.03;;;12.30;99.90;;;;;;5030519;28;20033;-49
2022/12/19 17:38:12;;;;;;;17.30;4.03;;;12.30;99.90;;;;;;5035099;28;20025;-47
2022/12/19 17:40:39;;;;;;;16.70;4.50;;;12.30;99.90;;;;;;5029158;28;20022;-48
2022/12/19 17:43:04;;;;;;;23.23;4.97;;;12.20;99.90;;;;;;5034520;28;20032;-47
2022/12/19 17:45:32;;;;;;;22.08;5.35;;;12.20;99.90;;;;;;5034959;28;20026;-50
2022/12/19 17:48:01;;;;;;;16.40;4.90;;;12.20;99.90;;;;;;5032447;28;20044;-50
2022/12/19 17:50:30;;;;;;;16.45;4.93;;;12.20;99.90;;;;;;5035412;28;20241;-51
2022/12/19 17:52:56;;;;;;;22.35;5.00;;;12.20;99.90;;;;;;5034256;28;20025;-46
2022/12/19 17:55:26;;;;;;;18.50;4.78;;;12.20;99.90;;;;;;5033356;28;20032;-49
2022/12/19 17:57:53;;;;;;;22.95;6.32;;;12.30;99.90;;;;;;5031490;28;20024;-47
2022/12/19 18:00:21;;;;;;;31.00;5.97;;;12.20;99.90;;;;;;5030070;28;20025;-50
2022/12/19 18:02:49;;;;;;;17.13;4.88;;;12.20;99.90;;;;;;5031876;28;20116;-47
2022/12/19 18:05:26;;;;;;;20.65;5.18;;;12.10;99.90;;;;;;5033545;28;20292;-53
2022/12/19 18:07:52;;;;;;;20.45;4.80;;;12.10;99.90;;;;;;5022580;28;20050;-56
2022/12/19 18:10:23;;;;;;;20.88;4.78;;;12.10;99.90;;;;;;5033236;28;20041;-47
2022/12/19 18:12:49;;;;;;;19.92;4.95;;;12.10;99.90;;;;;;5024501;28;20026;-52
2022/12/19 18:15:15;;;;;;;18.48;5.07;;;12.10;99.90;;;;;;5034719;28;20025;-50
2022/12/19 18:17:42;;;;;;;22.13;5.28;;;12.10;99.90;;;;;;5029749;28;20017;-47
2022/12/19 18:20:14;;;;;;;27.05;4.70;;;12.10;99.90;;;;;;5031112;28;20504;-49
2022/12/19 18:22:40;;;;;;;22.27;4.78;;;12.10;99.90;;;;;;5029580;28;20453;-50
2022/12/19 18:25:18;;;;;;;17.17;4.75;;;12.20;99.90;;;;;;5033561;28;20104;-47
2022/12/19 18:27:44;;;;;;;37.85;6.45;;;12.20;99.90;;;;;;5026818;28;20028;-49
2022/12/19 18:30:13;;;;;;;19.80;4.50;;;12.30;99.90;;;;;;5040556;28;20093;-44
2022/12/19 18:32:40;;;;;;;19.02;4.68;;;12.30;99.90;;;;;;5034887;28;20037;-44
2022/12/19 18:35:13;;;;;;;23.63;6.13;;;12.30;99.90;;;;;;5032232;28;20435;-47
2022/12/19 18:37:39;;;;;;;19.65;4.93;;;12.30;99.90;;;;;;5023846;28;20021;-47
2022/12/19 18:40:34;;;;;;;26.35;5.55;;;12.30;99.90;;;;;;5044603;28;20506;-43
2022/12/19 18:42:59;;;;;;;19.92;5.05;;;12.30;99.90;;;;;;5026800;28;20400;-43
2022/12/19 18:45:32;;;;;;;23.15;5.97;;;12.30;99.90;;;;;;5035603;28;20014;-39
2022/12/19 18:48:00;;;;;;;18.85;4.93;;;12.20;99.90;;;;;;5037860;28;20056;-39
2022/12/19 18:50:27;;;;;;;19.42;5.07;;;12.20;99.90;;;;;;5039742;28;20029;-38
2022/12/19 18:52:53;;;;;;;20.55;5.32;;;12.20;99.90;;;;;;5037774;28;20026;-47
2022/12/19 18:55:20;;;;;;;21.60;4.53;;;12.20;99.90;;;;;;5038636;28;20060;-47
2022/12/19 18:57:47;;;;;;;20.08;4.78;;;12.20;99.90;;;;;;5036114;28;20055;-49
2022/12/19 19:00:15;;;;;;;17.88;4.57;;;12.20;99.90;;;;;;5047049;28;20024;-48
2022/12/19 19:03:02;;;;;;;17.37;4.40;;;12.10;99.90;;;;;;5039017;28;20112;-48
2022/12/19 19:05:33;;;;;;;25.20;5.30;;;12.10;99.90;;;;;;5031686;28;20021;-49
2022/12/19 19:08:10;;;;;;;18.80;4.97;;;12.10;99.90;;;;;;5025589;28;20057;-44
2022/12/19 19:10:36;;;;;;;22.60;5.55;;;12.10;99.90;;;;;;5028553;28;20017;-46
2022/12/19 19:13:02;;;;;;;19.38;4.88;;;12.00;99.90;;;;;;5026039;28;20030;-46
2022/12/19 19:15:31;;;;;;;17.13;4.63;;;12.00;99.90;;;;;;5028488;28;20437;-44
2022/12/19 19:18:06;;;;;;;20.30;4.78;;;12.00;99.90;;;;;;5025949;28;20045;-45
2022/12/19 19:20:35;;;;;;;22.33;4.82;;;12.00;99.90;;;;;;5028233;28;20096;-46
2022/12/19 19:23:01;;;;;;;19.20;5.10;;;12.00;99.90;;;;;;5025664;28;20565;-46
2022/12/19 19:25:26;;;;;;;20.55;4.90;;;12.10;99.90;;;;;;5028526;28;20534;-49
2022/12/19 19:27:54;;;;;;;22.58;4.53;;;12.10;99.90;;;;;;5031184;28;20053;-45
2022/12/19 19:30:20;;;;;;;17.75;4.85;;;12.10;99.90;;;;;;5028616;28;20033;-43
2022/12/19 19:32:52;;;;;;;18.73;4.53;;;12.20;99.90;;;;;;5027939;28;20029;-48
2022/12/19 19:35:20;;;;;;;16.73;4.60;;;12.20;99.90;;;;;;5017077;28;20071;-48
2022/12/19 19:37:49;;;;;;;19.05;4.35;;;12.20;99.90;;;;;;5030367;28;20036;-49
2022/12/19 19:40:15;;;;;;;22.80;5.78;;;12.20;99.90;;;;;;5027746;28;20068;-47
2022/12/19 19:42:40;;;;;;;15.00;4.18;;;12.30;99.90;;;;;;5030131;28;20033;-49
2022/12/19 19:45:07;;;;;;;20.27;4.22;;;12.30;99.90;;;;;;5026594;28;20080;-49
2022/12/19 19:47:35;;;;;;;18.75;4.18;;;12.40;99.90;;;;;;5025508;28;20460;-52
2022/12/19 19:50:02;;;;;;;18.88;4.70;;;12.40;99.90;;;;;;5014392;28;20087;-48
2022/12/19 19:52:28;;;;;;;20.70;4.57;;;12.40;99.90;;;;;;5022710;28;20096;-47
2022/12/19 19:54:54;;;;;;;17.38;4.18;;;12.40;99.90;;;;;;5014437;28;20029;-47
2022/12/19 19:57:20;;;;;;;18.52;4.65;;;12.50;99.90;;;;;;5023249;28;20496;-56
2022/12/19 19:59:45;;;;;;;19.23;4.35;;;12.50;99.90;;;;;;5012835;28;20501;-50
2022/12/19 20:02:11;;;;;;;23.33;4.82;;;12.50;99.90;;;;;;5025276;28;20018;-45
2022/12/19 20:04:37;;;;;;;17.63;3.85;;;12.50;99.90;;;;;;5021333;28;20036;-44
2022/12/19 20:07:04;;;;;;;22.20;4.78;;;12.60;99.90;;;;;;5028052;28;20515;-55
2022/12/19 20:09:30;;;;;;;17.00;3.83;;;12.60;99.90;;;;;;5012522;28;20503;-47
2022/12/19 20:11:56;;;;;;;16.85;4.45;;;12.60;99.90;;;;;;5013576;28;20029;-46
2022/12/19 20:14:25;;;;;;;20.65;4.82;;;12.70;99.90;;;;;;5012554;28;20061;-49
2022/12/19 20:16:51;;;;;;;26.98;6.65;;;12.70;99.90;;;;;;5012804;28;20030;-44
2022/12/19 20:19:17;;;;;;;19.83;5.07;;;12.70;99.90;;;;;;5013244;28;20555;-50
2022/12/19 20:21:44;;;;;;;22.58;4.60;;;12.70;99.90;;;;;;5013124;28;20029;-48
2022/12/19 20:24:10;;;;;;;27.65;4.80;;;12.70;99.90;;;;;;5014133;28;20036;-45
2022/12/19 20:26:36;;;;;;;27.50;4.55;;;12.80;99.90;;;;;;5025535;28;20033;-47
2022/12/19 20:29:02;;;;;;;20.23;4.43;;;12.80;99.90;;;;;;5030590;28;20044;-46
2022/12/19 20:31:29;;;;;;;19.63;4.18;;;12.70;99.90;;;;;;5030212;28;20057;-50
2022/12/19 20:33:55;;;;;;;19.42;4.60;;;12.70;99.90;;;;;;5029589;28;20071;-45
2022/12/19 20:36:24;;;;;;;17.75;4.03;;;12.70;99.90;;;;;;5026105;28;20466;-47
2022/12/19 20:38:50;;;;;;;15.27;4.40;;;12.70;99.90;;;;;;5019783;28;20030;-53
2022/12/19 20:41:17;;;;;;;18.92;4.22;;;12.70;99.90;;;;;;5027254;28;20465;-44
2022/12/19 20:43:43;;;;;;;16.25;3.95;;;12.70;99.90;;;;;;5020309;28;20481;-50
2022/12/19 20:46:14;;;;;;;20.80;4.10;;;12.80;99.90;;;;;;5027451;28;20028;-46
2022/12/19 20:48:40;;;;;;;14.98;3.97;;;12.80;99.90;;;;;;5020667;28;20034;-49
2022/12/19 20:51:07;;;;;;;16.33;4.63;;;12.80;99.90;;;;;;5026802;28;20041;-49
2022/12/19 20:53:34;;;;;;;19.40;4.55;;;12.80;99.90;;;;;;5022491;28;20504;-47
2022/12/19 20:56:02;;;;;;;16.77;4.22;;;12.80;99.90;;;;;;5026243;28;20032;-50
2022/12/19 20:58:29;;;;;;;20.98;4.30;;;12.80;99.90;;;;;;5024143;28;20279;-49
2022/12/19 21:00:56;;;;;;;18.40;4.25;;;12.80;99.90;;;;;;5024722;28;20437;-49
2022/12/19 21:03:22;;;;;;;17.42;4.05;;;12.80;99.90;;;;;;5024725;28;20084;-47
2022/12/19 21:05:52;;;;;;;23.02;4.30;;;12.80;99.90;;;;;;5024133;28;20476;-42
2022/12/19 21:08:19;;;;;;;21.58;4.30;;;12.70;99.90;;;;;;5024152;28;20057;-43
2022/12/19 21:10:45;;;;;;;18.92;4.30;;;12.70;99.90;;;;;;5020558;28;20571;-48
2022/12/19 21:13:10;;;;;;;21.50;4.10;;;12.70;99.90;;;;;;5022255;28;20037;-45
2022/12/19 21:15:36;;;;;;;17.67;4.53;;;12.70;99.90;;;;;;5024198;28;20029;-51
2022/12/19 21:18:01;;;;;;;16.02;4.00;;;12.60;99.90;;;;;;5033703;28;20037;-50
2022/12/19 21:20:27;;;;;;;15.93;4.25;;;12.60;99.90;;;;;;5032396;28;20116;-47
2022/12/19 21:22:53;;;;;;;18.50;4.95;;;12.50;99.90;;;;;;5031413;28;20036;-51